Details for TUI Airlines UK (Thomson) at EGAA




Go Back


Latest METAR
Local Time

EGAA 241320Z 13011KT 9999 BKN024 03/M02 Q1022

24/02/2018, 13:26:41

Description
Results
TUI Airlines UK (Thomson) Logo
Number of Pilots based at EGAA
1 Pilots Based here
Number of TUI Airlines UK (Thomson) Flights Departed from EGAA
0 Flights Departed
Number of TUI Airlines UK (Thomson) Flights Arrived at EGAA
0 Flights Arrived
Number of TUI Airlines UK (Thomson) Schedules Departing from EGAA
1 Schedules
Number of TUI Airlines UK (Thomson) Schedules Arriving at EGAA
1 Schedules
Number of TUI Airlines UK (Thomson) Schedules Departing from EGAA availible today
1 Schedules Today
Number of TUI Airlines UK (Thomson) Schedules Arriving at EGAA availible today
1 Schedules Today
Average Landing Rate at EGAA
-248 fpm
TUI Airlines UK (Thomson) Average Landing Rate at EGAA
0 fpm
Total Fuel Purchased at EGAA by TUI Airlines UK (Thomson)
0.00 kgs / 0.00 lbs

Pilots Based at EGAA


Pilot ID
Pilot Name
Pilot Rank
No. of Flights
No. of Flying Hours
Dean Cullen
121
161.47
Content